Latest Weather Observations for Samuel Hill

IDQ60801

Issued at 6:05 am EST Wednesday 24 September 2014 (issued every 30 minutes, with the page automatically refreshed every 10 minutes)

About weather observations | Map of weather stations | Latest weather observations for QLD | Other Formats
Station Details ID: 033308 Name: SAMUEL HILL AERO Lat: -22.74 Lon: 150.66 Height: 31.0 m
Data from the previous 72 hours. | See also: Recent months at Samuel Hill
Date/Time
EST
Temp
°C
App
Temp
°C
Dew
Point
Rel
Hum
%
Delta-T
°C
Wind Press
QNH
hPa
Press
MSL
hPa
Rain
since 9 am
mm
Dir
 
Spd
km/h
Gust
km/h
Spd
kts
Gust
kts
24/06:00am 16.4 16.9 15.1 92 0.8 SSE 6 9 3 5 1021.5 1021.4 0.6
24/05:30am 16.3 16.8 15.0 92 0.7 SSE 6 9 3 5 1021.3 1021.2 0.6
24/05:00am 16.3 16.5 14.8 91 0.9 SSE 7 9 4 5 1021.2 1021.1 0.6
24/04:30am 16.7 17.0 15.1 90 0.9 SSE 7 9 4 5 1021.2 1021.1 0.6
24/04:00am 17.1 17.5 15.3 89 1.0 SSE 7 11 4 6 1021.0 1020.9 0.6
24/03:30am 17.6 17.7 15.6 88 1.2 SE 9 15 5 8 1020.8 1020.7 0.6
24/03:00am 17.6 17.7 15.4 87 1.3 ESE 9 13 5 7 1021.0 1020.9 0.6
24/02:30am 17.5 17.3 15.8 90 1.0 SE 11 15 6 8 1021.1 1021.0 0.6
24/02:00am 17.2 17.7 15.0 87 1.3 SSE 6 7 3 4 1021.3 1021.2 0.6
24/01:30am 18.1 18.2 15.5 85 1.5 SE 9 13 5 7 1021.6 1021.5 0.6
24/01:00am 18.2 18.2 15.3 83 1.7 ESE 9 15 5 8 1021.9 1021.8 0.6
24/12:30am 18.5 19.2 15.6 83 1.7 ESE 6 13 3 7 1022.4 1022.3 0.6
24/12:00am 18.1 18.3 15.7 86 1.4 ESE 9 11 5 6 1022.4 1022.3 0.6
 
Date/Time
EST
Temp
°C
App
Temp
°C
Dew
Point
Rel
Hum
%
Delta-T
°C
Wind Press
QNH
hPa
Press
MSL
hPa
Rain
since 9 am
mm
Dir
 
Spd
km/h
Gust
km/h
Spd
kts
Gust
kts
23/11:30pm 17.9 18.5 15.2 84 1.6 SE 6 9 3 5 1022.7 1022.6 0.6
23/11:00pm 18.3 18.9 15.4 83 1.7 ESE 6 13 3 7 1022.9 1022.8 0.6
23/10:30pm 18.7 18.9 15.8 83 1.7 ESE 9 20 5 11 1022.9 1022.8 0.6
23/10:00pm 18.8 19.3 16.6 87 1.3 ESE 9 19 5 10 1022.9 1022.8 0.6
23/09:59pm 18.8 18.9 16.6 87 1.3 ESE 11 19 6 10 1022.9 1022.8 0.6
23/09:38pm 19.2 19.5 17.0 87 1.3 ESE 11 26 6 14 1023.1 1023.0 0.4
23/09:30pm 19.0 19.2 16.8 87 1.3 ESE 11 19 6 10 1023.0 1022.9 0.4
23/09:00pm 18.6 18.2 16.2 86 1.4 SE 13 20 7 11 1023.1 1023.0 0.4
23/08:30pm 18.6 18.4 16.6 88 1.2 ESE 13 20 7 11 1022.9 1022.8 0.4
23/08:20pm 18.6 18.0 16.6 88 1.2 ESE 15 22 8 12 1022.9 1022.8 0.4
23/08:00pm 18.8 19.4 16.8 88 1.2 ESE 9 20 5 11 1022.8 1022.7 0.4
23/07:47pm 18.9 19.4 16.5 86 1.4 SE 9 20 5 11 1022.8 1022.7 0.0
23/07:30pm 18.8 19.2 16.2 85 1.6 SE 9 17 5 9 1022.7 1022.6 0.0
23/07:00pm 18.8 18.3 16.0 84 1.7 SE 13 22 7 12 1022.5 1022.4 0.0
23/06:30pm 19.4 19.2 16.6 84 1.7 SE 13 24 7 13 1022.2 1022.1 0.0
23/06:00pm 19.9 19.2 15.3 75 2.7 ESE 13 22 7 12 1022.0 1021.9 0.0
23/05:30pm 20.9 19.7 15.0 69 3.5 E 15 26 8 14 1021.7 1021.6 0.0
23/05:00pm 20.8 19.4 15.6 72 3.1 E 17 28 9 15 1021.4 1021.3 0.0
23/04:30pm 21.4 19.2 15.0 67 3.8 E 20 32 11 17 1021.4 1021.3 0.0
23/04:00pm 21.6 18.9 14.5 64 4.2 E 22 35 12 19 1021.3 1021.2 0.0
23/03:30pm 21.9 19.7 14.8 64 4.2 E 20 30 11 16 1021.3 1021.2 0.0
23/03:00pm 23.2 21.3 15.3 61 4.7 ESE 19 30 10 16 1021.1 1021.0 0.0
23/02:30pm 23.4 20.4 13.8 54 5.6 E 22 37 12 20 1021.3 1021.2 0.0
23/02:00pm 23.7 21.3 14.4 56 5.5 E 20 35 11 19 1021.6 1021.5 0.0
23/01:30pm 22.5 19.8 14.6 61 4.7 E 22 35 12 19 1021.9 1021.8 0.0
23/01:00pm 23.4 20.8 16.0 63 4.5 E 24 39 13 21 1022.0 1021.9 0.0
23/12:30pm 23.0 20.9 15.1 61 4.7 E 20 33 11 18 1022.3 1022.2 0.0
23/12:00pm 21.8 20.7 17.2 75 2.8 ESE 19 35 10 19 1022.6 1022.5 0.0
23/11:30am 22.9 21.2 15.7 64 4.3 ESE 19 33 10 18 1022.9 1022.8 0.0
23/11:00am 22.5 19.8 15.6 65 4.1 ESE 24 39 13 21 1023.2 1023.1 0.0
23/10:30am 23.4 20.4 14.7 58 5.2 E 24 39 13 21 1023.4 1023.3 0.0
23/10:00am 23.5 21.1 14.5 57 5.3 E 20 33 11 18 1023.4 1023.3 0.0
23/09:30am 22.2 20.0 16.0 68 3.7 ESE 22 35 12 19 1023.5 1023.4 0.0
23/09:00am 21.8 20.4 17.0 74 2.9 ESE 20 32 11 17 1023.5 1023.4 4.8
23/08:58am 21.6 20.3 17.2 76 2.7 ESE 20 33 11 18 1023.5 1023.4 4.8
23/08:39am 20.1 18.6 16.3 79 2.3 ESE 19 28 10 15 1023.5 1023.4 4.8
23/08:30am 20.9 19.9 16.5 76 2.7 ESE 17 22 9 12 1023.6 1023.5 4.4
23/08:18am 20.5 19.5 16.7 79 2.3 ESE 17 28 9 15 1023.6 1023.5 4.4
23/08:00am 19.6 18.7 16.8 84 1.7 ESE 17 28 9 15 1023.4 1023.3 4.4
23/07:30am 20.2 19.4 16.2 78 2.4 ESE 15 26 8 14 1023.0 1022.9 4.4
23/07:00am 19.8 19.9 16.6 82 1.9 ESE 11 20 6 11 1022.4 1022.3 4.4
23/06:30am 18.8 18.8 16.2 85 1.6 ESE 11 19 6 10 1022.1 1022.0 4.4
23/06:00am 18.7 18.2 15.9 84 1.7 ESE 13 26 7 14 1021.8 1021.7 4.4
23/05:43am 18.7 18.2 15.8 83 1.7 E 13 20 7 11 1021.7 1021.6 4.4
23/05:30am 18.4 17.9 15.8 85 1.5 ESE 13 20 7 11 1021.4 1021.3 4.4
23/05:25am 18.8 18.2 15.7 82 1.8 E 13 20 7 11 1021.5 1021.4 4.4
23/05:00am 19.4 19.1 15.5 78 2.3 E 11 19 6 10 1021.2 1021.1 4.2
23/04:30am 19.3 18.7 15.6 79 2.2 E 13 20 7 11 1020.9 1020.8 4.2
23/04:00am 19.1 18.4 15.4 79 2.2 E 13 20 7 11 1020.4 1020.3 4.2
23/03:30am 18.7 18.8 15.6 82 1.8 E 9 15 5 8 1020.6 1020.5 4.2
23/03:16am 18.5 18.3 15.7 84 1.7 E 11 17 6 9 1020.4 1020.3 4.2
23/03:00am 17.7 18.0 15.9 89 1.1 E 9 15 5 8 1020.6 1020.5 4.2
23/02:59am 17.5 18.1 15.7 89 1.1 E 7 13 4 7 1020.7 1020.6 4.2
23/02:30am 17.2 17.6 14.7 85 1.4 E 6 11 3 6 1020.7 1020.6 4.0
23/02:00am 17.1 17.4 14.9 87 1.3 SSE 7 11 4 6 1020.8 1020.7 4.0
23/01:30am 17.7 17.7 15.1 85 1.5 SE 9 13 5 7 1020.9 1020.8 4.0
23/01:00am 17.9 18.2 16.1 89 1.1 ESE 9 13 5 7 1021.3 1021.2 4.0
23/12:48am 17.4 18.0 15.9 91 0.9 SE 7 11 4 6 1021.5 1021.4 4.0
23/12:30am 17.1 17.2 15.4 90 1.0 SSE 9 11 5 6 1022.0 1021.9 4.0
23/12:13am 17.2 17.1 15.0 87 1.3 SSE 9 13 5 7 1022.0 1021.9 3.4
23/12:00am 17.6 18.0 15.2 86 1.4 SE 7 11 4 6 1022.2 1022.1 3.2
 
Date/Time
EST
Temp
°C
App
Temp
°C
Dew
Point
Rel
Hum
%
Delta-T
°C
Wind Press
QNH
hPa
Press
MSL
hPa
Rain
since 9 am
mm
Dir
 
Spd
km/h
Gust
km/h
Spd
kts
Gust
kts
22/11:30pm 18.0 17.9 16.0 88 1.2 SE 11 17 6 9 1022.3 1022.2 3.0
22/11:00pm 18.1 18.4 15.9 87 1.3 ESE 9 13 5 7 1022.4 1022.3 3.0
22/10:47pm 18.0 19.3 16.2 89 1.1 ESE 4 6 2 3 1022.7 1022.6 3.0
22/10:30pm 18.1 19.8 16.3 89 1.1 ENE 2 6 1 3 1022.8 1022.7 2.8
22/10:00pm 18.4 18.3 16.0 86 1.4 E 11 15 6 8 1023.3 1023.2 2.0
22/09:30pm 18.9 18.7 15.8 82 1.8 ESE 11 24 6 13 1023.1 1023.0 1.6
22/09:21pm 19.3 18.8 15.8 80 2.1 E 13 24 7 13 1023.1 1023.0 1.0
22/09:06pm 19.6 18.6 15.7 78 2.3 ESE 15 24 8 13 1022.9 1022.8 1.0
22/09:00pm 19.4 18.8 15.7 79 2.2 E 13 22 7 12 1022.8 1022.7 1.0
22/08:47pm 19.7 18.1 16.0 79 2.2 ESE 19 28 10 15 1022.5 1022.4 1.0
22/08:30pm 20.0 19.5 16.0 78 2.4 E 13 22 7 12 1022.5 1022.4 0.8
22/08:00pm 20.3 19.9 15.1 72 3.1 E 11 22 6 12 1022.2 1022.1 0.8
22/07:30pm 20.2 19.9 14.3 69 3.4 ESE 9 15 5 8 1021.8 1021.7 0.8
22/07:00pm 20.4 19.1 13.6 65 3.9 E 13 20 7 11 1021.5 1021.4 0.8
22/06:30pm 20.1 19.5 14.5 70 3.3 E 11 19 6 10 1021.0 1020.9 0.8
22/06:00pm 20.2 18.3 15.2 73 2.9 E 19 32 10 17 1020.8 1020.7 0.8
22/05:30pm 20.4 18.6 15.4 73 3.0 ENE 19 33 10 18 1020.4 1020.3 0.8
22/05:00pm 20.8 18.3 15.1 70 3.4 ENE 22 37 12 20 1019.9 1019.8 0.8
22/04:30pm 20.9 19.4 15.4 71 3.3 E 17 28 9 15 1019.3 1019.2 0.8
22/04:00pm 21.3 19.3 14.9 67 3.8 ENE 19 30 10 16 1019.1 1019.0 0.8
22/03:30pm 22.0 20.0 15.6 67 3.8 ENE 20 35 11 19 1018.7 1018.6 0.8
22/03:00pm 21.2 20.7 16.8 76 2.7 E 15 24 8 13 1018.6 1018.5 0.8
22/02:30pm 20.5 20.5 17.1 81 2.1 ENE 13 20 7 11 1018.7 1018.6 0.8
22/02:25pm 20.2 20.5 17.0 82 1.9 ENE 11 20 6 11 1018.8 1018.7 0.8
22/02:07pm 20.0 19.3 16.4 80 2.2 ENE 15 20 8 11 1019.2 1019.1 0.6
22/02:00pm 20.4 19.8 16.6 79 2.3 ENE 15 22 8 12 1019.3 1019.2 0.6
22/01:30pm 21.8 19.8 15.6 68 3.7 ENE 20 33 11 18 1019.4 1019.3 0.6
22/01:00pm 22.9 20.8 16.2 66 4.1 ENE 22 39 12 21 1019.6 1019.5 0.6
22/12:30pm 21.3 18.9 16.5 74 2.9 E 24 37 13 20 1020.1 1020.0 0.6
22/12:19pm 21.3 21.2 17.9 81 2.1 E 15 28 8 15 1020.2 1020.1 0.6
22/12:00pm 19.5 18.2 17.3 87 1.3 E 20 32 11 17 1020.6 1020.5 0.6
22/11:49am 20.0 17.1 15.2 74 2.8 ENE 24 43 13 23 1021.0 1020.9 0.0
22/11:30am 21.6 20.3 15.9 70 3.4 ENE 17 28 9 15 1020.9 1020.8 0.0
22/11:00am 22.2 20.2 15.5 66 4.0 ENE 20 28 11 15 1021.3 1021.2 0.0
22/10:30am 21.6 20.9 16.3 72 3.2 ENE 15 26 8 14 1021.6 1021.5 0.0
22/10:00am 21.5 19.6 15.8 70 3.4 E 20 32 11 17 1021.7 1021.6 0.0
22/09:30am 21.0 19.7 16.8 77 2.6 ENE 19 26 10 14 1021.7 1021.6 0.0
22/09:00am 20.8 22.0 18.2 85 1.6 E 9 13 5 7 1021.8 1021.7 23.4
22/08:50am 19.5 19.9 17.3 87 1.3 E 11 15 6 8 1021.9 1021.8 23.4
22/08:30am 19.0 20.4 17.7 92 0.8 ESE 7 19 4 10 1021.9 1021.8 23.2
22/08:24am 19.2 21.1 17.7 91 0.9 SSW 4 7 2 4 1021.9 1021.8 22.2
22/08:00am 19.1 21.8 17.8 92 0.8 CALM 0 0 0 0 1021.6 1021.5 21.6
22/07:59am 19.1 21.8 17.8 92 0.8 CALM 0 0 0 0 1021.6 1021.5 21.6
22/07:30am 18.4 19.5 17.2 93 0.7 NNE 7 11 4 6 1021.4 1021.3 21.4
22/07:09am 18.7 17.7 16.7 88 1.2 SE 17 24 9 13 1021.2 1021.1 18.4
22/07:00am 18.9 18.3 16.7 87 1.3 SSE 15 24 8 13 1020.9 1020.8 18.2
22/06:30am 18.6 18.6 16.2 86 1.4 SE 11 17 6 9 1020.4 1020.3 18.2
22/06:00am 17.5 17.7 15.8 90 1.0 SE 9 13 5 7 1020.2 1020.1 18.2
22/05:30am 17.3 17.4 15.6 90 1.0 SSE 9 11 5 6 1020.1 1020.0 18.2
22/05:00am 17.3 16.7 15.6 90 1.0 SE 13 20 7 11 1019.6 1019.5 18.2
22/04:30am 17.7 16.4 15.9 89 1.1 SE 17 24 9 13 1019.6 1019.5 18.2
22/04:00am 16.7 16.8 15.6 93 0.6 SE 9 17 5 9 1019.7 1019.6 18.2
22/03:30am 16.3 15.5 15.0 92 0.8 SSE 13 17 7 9 1019.9 1019.8 18.2
22/03:00am 15.9 15.3 14.6 92 0.7 SSE 11 17 6 9 1020.1 1020.0 18.2
22/02:30am 15.8 14.3 14.3 91 0.9 SSE 15 24 8 13 1020.2 1020.1 18.2
22/02:00am 16.0 14.8 14.0 88 1.1 SSE 13 20 7 11 1020.9 1020.8 18.2
22/01:38am 16.5 14.9 14.9 90 0.9 ESE 17 28 9 15 1021.3 1021.2 18.2
22/01:30am 16.4 15.5 14.9 91 0.9 ESE 13 28 7 15 1021.4 1021.3 18.2
22/01:11am 16.5 15.0 15.2 92 0.8 ESE 17 30 9 16 1021.7 1021.6 17.4
22/01:00am 16.6 15.2 15.5 93 0.6 SE 17 28 9 15 1021.8 1021.7 17.4
22/12:57am 16.5 15.1 15.5 94 0.6 SE 17 28 9 15 1021.8 1021.7 17.4
22/12:49am 16.3 15.6 15.3 94 0.6 SSE 13 19 7 10 1021.7 1021.6 17.4
22/12:30am 16.5 16.6 15.5 94 0.6 SE 9 15 5 8 1022.1 1022.0 17.2
22/12:24am 16.6 16.3 15.5 93 0.6 SE 11 17 6 9 1022.1 1022.0 17.0
22/12:07am 16.7 16.1 15.6 93 0.6 SE 13 20 7 11 1022.3 1022.2 17.0
22/12:00am 16.7 15.7 15.6 93 0.6 SE 15 24 8 13 1022.4 1022.3 17.0
 
Date/Time
EST
Temp
°C
App
Temp
°C
Dew
Point
Rel
Hum
%
Delta-T
°C
Wind Press
QNH
hPa
Press
MSL
hPa
Rain
since 9 am
mm
Dir
 
Spd
km/h
Gust
km/h
Spd
kts
Gust
kts
21/11:30pm 16.9 15.0 15.8 93 0.6 SE 20 32 11 17 1022.6 1022.5 16.4
21/11:13pm 17.0 15.2 15.9 93 0.6 SE 20 33 11 18 1022.8 1022.7 16.2
21/11:00pm 17.1 15.8 15.8 92 0.8 SSE 17 37 9 20 1022.5 1022.4 14.6
21/10:43pm 17.0 15.1 15.7 92 0.8 SSE 20 32 11 17 1022.7 1022.6 12.0
21/10:30pm 17.2 15.6 15.9 92 0.8 SSE 19 28 10 15 1022.8 1022.7 11.8
21/10:00pm 17.1 16.8 15.4 90 1.0 SSE 11 17 6 9 1022.7 1022.6 11.8
21/09:30pm 17.5 17.4 16.0 91 0.9 S 11 19 6 10 1022.6 1022.5 11.8
21/09:00pm 17.6 17.9 15.9 90 1.0 SSE 9 11 5 6 1022.3 1022.2 11.8
21/08:30pm 17.9 18.4 16.6 92 0.8 SSE 9 13 5 7 1022.1 1022.0 11.8
21/08:00pm 17.9 19.6 16.1 89 1.1 S 2 7 1 4 1022.1 1022.0 11.0
21/07:39pm 18.3 18.9 15.9 86 1.4 SSW 7 19 4 10 1022.2 1022.1 7.8
21/07:30pm 18.5 18.7 15.7 84 1.7 S 9 13 5 7 1021.8 1021.7 7.0
21/07:00pm 18.7 19.5 15.9 84 1.7 SE 6 9 3 5 1021.6 1021.5 7.0
21/06:30pm 18.6 20.1 15.8 84 1.7 ESE 2 9 1 5 1021.0 1020.9 7.0
21/06:00pm 19.2 19.7 15.5 79 2.2 SE 7 9 4 5 1020.7 1020.6 7.0
21/05:30pm 20.3 20.3 15.3 73 3.0 ENE 9 13 5 7 1020.4 1020.3 7.0
21/05:00pm 21.1 19.8 14.7 67 3.8 NE 15 24 8 13 1020.2 1020.1 7.0
21/04:30pm 21.3 20.8 15.8 71 3.3 ENE 13 24 7 13 1020.2 1020.1 7.0
21/04:00pm 20.7 20.8 16.5 77 2.5 ENE 11 19 6 10 1019.8 1019.7 7.0
21/03:45pm 20.1 21.8 18.0 88 1.3 E 6 11 3 6 1019.8 1019.7 7.0
21/03:30pm 19.4 20.5 17.2 87 1.3 SE 7 11 4 6 1020.0 1019.9 7.0
21/03:10pm 19.7 17.5 14.9 74 2.8 E 20 32 11 17 1020.3 1020.2 1.8
21/03:00pm 22.6 21.1 15.4 64 4.3 NE 17 28 9 15 1020.1 1020.0 0.0
21/02:30pm 23.2 22.0 15.0 60 4.9 E 15 19 8 10 1020.0 1019.9 0.0
21/02:00pm 23.5 21.3 15.0 59 5.1 E 20 26 11 14 1020.1 1020.0 0.0
21/01:30pm 23.3 21.0 14.6 58 5.2 E 20 32 11 17 1020.3 1020.2 0.0
21/01:00pm 23.1 20.3 14.4 58 5.1 E 22 30 12 16 1020.4 1020.3 0.0
21/12:30pm 23.8 21.7 13.6 52 6.0 E 17 28 9 15 1020.8 1020.7 0.0
21/12:00pm 24.3 21.2 14.4 54 5.9 E 24 37 13 20 1021.1 1021.0 0.0
21/11:30am 23.6 20.7 14.0 55 5.6 ENE 22 33 12 18 1021.3 1021.2 0.0
21/11:00am 23.5 20.8 14.5 57 5.3 ENE 22 33 12 18 1021.6 1021.5 0.0
21/10:30am 22.9 20.4 14.2 58 5.1 E 20 32 11 17 1022.1 1022.0 0.0
21/10:00am 23.6 20.8 15.4 60 4.9 ENE 24 33 13 18 1022.1 1022.0 0.0
21/09:30am 22.8 20.2 14.9 61 4.7 E 22 37 12 20 1022.0 1021.9 0.0
21/09:00am 22.6 19.6 14.7 61 4.7 ENE 24 37 13 20 1022.0 1021.9 0.0
21/08:30am 22.2 20.1 15.1 64 4.2 ENE 20 32 11 17 1021.8 1021.7 0.0
21/08:00am 21.6 20.0 15.0 66 3.9 E 17 26 9 14 1021.7 1021.6 0.0
21/07:30am 20.5 20.6 16.5 78 2.4 E 11 19 6 10 1021.6 1021.5 0.0
21/07:00am 16.6 18.5 15.8 95 0.5 CALM 0 0 0 0 1021.3 1021.2 0.0
21/06:30am 14.1 15.2 13.5 96 0.3 CALM 0 0 0 0 1021.1 1021.0 0.0

Other Formats:

Comma delimited format used in spreadsheet applications
http://www.bom.gov.au/fwo/IDQ60801/IDQ60801.94370.axf

JavaScript Object Notation format (JSON) in row-major order
http://www.bom.gov.au/fwo/IDQ60801/IDQ60801.94370.json